sensor_id;sensor_type;location;lat;lon;timestamp;P1;durP1;ratioP1;P2;durP2;ratioP2
56413;SDS011;42318;48.452;19.526;2023-09-19T00:02:36;5.82;;;4.30;;
56413;SDS011;42318;48.452;19.526;2023-09-19T00:05:37;5.05;;;3.80;;
56413;SDS011;42318;48.452;19.526;2023-09-19T00:08:39;4.38;;;3.97;;
56413;SDS011;42318;48.452;19.526;2023-09-19T00:11:39;6.28;;;4.45;;
56413;SDS011;42318;48.452;19.526;2023-09-19T00:14:41;4.75;;;3.78;;
56413;SDS011;42318;48.452;19.526;2023-09-19T00:17:42;6.55;;;4.50;;
56413;SDS011;42318;48.452;19.526;2023-09-19T00:20:43;6.00;;;4.43;;
56413;SDS011;42318;48.452;19.526;2023-09-19T00:23:47;4.63;;;3.72;;
56413;SDS011;42318;48.452;19.526;2023-09-19T00:26:48;4.70;;;3.80;;
56413;SDS011;42318;48.452;19.526;2023-09-19T00:29:48;4.70;;;4.03;;
56413;SDS011;42318;48.452;19.526;2023-09-19T00:32:50;6.03;;;4.15;;
56413;SDS011;42318;48.452;19.526;2023-09-19T00:35:55;4.88;;;3.97;;
56413;SDS011;42318;48.452;19.526;2023-09-19T00:38:57;5.53;;;4.28;;
56413;SDS011;42318;48.452;19.526;2023-09-19T00:41:58;5.53;;;4.50;;
56413;SDS011;42318;48.452;19.526;2023-09-19T00:45:05;5.05;;;3.95;;
56413;SDS011;42318;48.452;19.526;2023-09-19T00:48:11;5.18;;;3.92;;
56413;SDS011;42318;48.452;19.526;2023-09-19T00:51:12;5.82;;;3.95;;
56413;SDS011;42318;48.452;19.526;2023-09-19T00:54:14;5.68;;;4.30;;
56413;SDS011;42318;48.452;19.526;2023-09-19T00:57:18;4.97;;;3.78;;
56413;SDS011;42318;48.452;19.526;2023-09-19T01:00:20;4.55;;;3.80;;
56413;SDS011;42318;48.452;19.526;2023-09-19T01:03:21;4.05;;;3.65;;
56413;SDS011;42318;48.452;19.526;2023-09-19T01:06:22;5.07;;;4.13;;
56413;SDS011;42318;48.452;19.526;2023-09-19T01:09:24;4.50;;;3.63;;
56413;SDS011;42318;48.452;19.526;2023-09-19T01:12:30;4.63;;;4.20;;
56413;SDS011;42318;48.452;19.526;2023-09-19T01:22:32;5.45;;;4.03;;
56413;SDS011;42318;48.452;19.526;2023-09-19T01:32:46;4.07;;;3.65;;
56413;SDS011;42318;48.452;19.526;2023-09-19T01:35:47;4.57;;;3.80;;
56413;SDS011;42318;48.452;19.526;2023-09-19T01:38:47;4.95;;;3.58;;
56413;SDS011;42318;48.452;19.526;2023-09-19T01:41:54;4.53;;;3.83;;
56413;SDS011;42318;48.452;19.526;2023-09-19T01:55:02;5.57;;;3.75;;
56413;SDS011;42318;48.452;19.526;2023-09-19T01:58:14;4.10;;;3.70;;
56413;SDS011;42318;48.452;19.526;2023-09-19T02:01:22;4.97;;;4.15;;
56413;SDS011;42318;48.452;19.526;2023-09-19T02:04:24;5.07;;;4.00;;
56413;SDS011;42318;48.452;19.526;2023-09-19T02:07:25;4.32;;;3.63;;
56413;SDS011;42318;48.452;19.526;2023-09-19T02:10:27;4.82;;;3.80;;
56413;SDS011;42318;48.452;19.526;2023-09-19T02:13:28;5.00;;;4.07;;
56413;SDS011;42318;48.452;19.526;2023-09-19T02:16:29;4.00;;;3.45;;
56413;SDS011;42318;48.452;19.526;2023-09-19T02:19:29;4.05;;;3.42;;
56413;SDS011;42318;48.452;19.526;2023-09-19T02:22:32;4.90;;;4.03;;
56413;SDS011;42318;48.452;19.526;2023-09-19T02:25:32;4.60;;;4.00;;
56413;SDS011;42318;48.452;19.526;2023-09-19T02:28:33;4.95;;;3.85;;
56413;SDS011;42318;48.452;19.526;2023-09-19T02:31:36;4.47;;;3.90;;
56413;SDS011;42318;48.452;19.526;2023-09-19T02:34:36;4.35;;;3.47;;
56413;SDS011;42318;48.452;19.526;2023-09-19T02:37:39;4.82;;;3.55;;
56413;SDS011;42318;48.452;19.526;2023-09-19T02:40:40;4.30;;;3.53;;
56413;SDS011;42318;48.452;19.526;2023-09-19T02:43:41;4.82;;;4.13;;
56413;SDS011;42318;48.452;19.526;2023-09-19T02:46:43;3.95;;;3.55;;
56413;SDS011;42318;48.452;19.526;2023-09-19T02:49:43;3.92;;;3.25;;
56413;SDS011;42318;48.452;19.526;2023-09-19T02:52:45;4.43;;;3.63;;
56413;SDS011;42318;48.452;19.526;2023-09-19T02:55:49;3.92;;;3.35;;
56413;SDS011;42318;48.452;19.526;2023-09-19T02:58:52;4.75;;;4.05;;
56413;SDS011;42318;48.452;19.526;2023-09-19T03:01:53;4.80;;;3.75;;
56413;SDS011;42318;48.452;19.526;2023-09-19T03:04:54;4.38;;;3.45;;
56413;SDS011;42318;48.452;19.526;2023-09-19T03:07:57;5.05;;;3.92;;
56413;SDS011;42318;48.452;19.526;2023-09-19T03:11:00;4.20;;;3.80;;
56413;SDS011;42318;48.452;19.526;2023-09-19T03:14:01;4.90;;;3.95;;
56413;SDS011;42318;48.452;19.526;2023-09-19T03:17:02;4.53;;;3.90;;
56413;SDS011;42318;48.452;19.526;2023-09-19T03:20:05;4.70;;;3.10;;
56413;SDS011;42318;48.452;19.526;2023-09-19T03:23:08;4.88;;;4.03;;
56413;SDS011;42318;48.452;19.526;2023-09-19T03:26:13;4.32;;;3.60;;
56413;SDS011;42318;48.452;19.526;2023-09-19T03:29:16;4.35;;;3.45;;
56413;SDS011;42318;48.452;19.526;2023-09-19T03:32:17;5.85;;;3.58;;
56413;SDS011;42318;48.452;19.526;2023-09-19T03:35:19;4.95;;;3.90;;
56413;SDS011;42318;48.452;19.526;2023-09-19T03:38:20;3.85;;;3.33;;
56413;SDS011;42318;48.452;19.526;2023-09-19T03:41:21;4.88;;;3.75;;
56413;SDS011;42318;48.452;19.526;2023-09-19T03:44:22;3.85;;;3.45;;
56413;SDS011;42318;48.452;19.526;2023-09-19T03:47:23;4.88;;;3.83;;
56413;SDS011;42318;48.452;19.526;2023-09-19T03:50:23;4.85;;;3.65;;
56413;SDS011;42318;48.452;19.526;2023-09-19T03:53:24;4.97;;;3.90;;
56413;SDS011;42318;48.452;19.526;2023-09-19T03:56:25;4.50;;;3.70;;
56413;SDS011;42318;48.452;19.526;2023-09-19T03:59:25;4.22;;;3.38;;
56413;SDS011;42318;48.452;19.526;2023-09-19T04:02:26;5.15;;;4.45;;
56413;SDS011;42318;48.452;19.526;2023-09-19T04:05:33;4.22;;;3.40;;
56413;SDS011;42318;48.452;19.526;2023-09-19T04:08:34;4.68;;;3.55;;
56413;SDS011;42318;48.452;19.526;2023-09-19T04:11:34;5.40;;;3.63;;
56413;SDS011;42318;48.452;19.526;2023-09-19T04:14:35;4.25;;;3.33;;
56413;SDS011;42318;48.452;19.526;2023-09-19T04:17:35;3.95;;;3.55;;
56413;SDS011;42318;48.452;19.526;2023-09-19T04:20:36;4.60;;;3.67;;
56413;SDS011;42318;48.452;19.526;2023-09-19T04:23:37;4.72;;;3.58;;
56413;SDS011;42318;48.452;19.526;2023-09-19T04:26:37;5.50;;;3.47;;
56413;SDS011;42318;48.452;19.526;2023-09-19T04:29:38;5.47;;;3.40;;
56413;SDS011;42318;48.452;19.526;2023-09-19T04:32:40;4.38;;;3.63;;
56413;SDS011;42318;48.452;19.526;2023-09-19T04:35:41;4.97;;;3.45;;
56413;SDS011;42318;48.452;19.526;2023-09-19T04:38:42;3.97;;;3.17;;
56413;SDS011;42318;48.452;19.526;2023-09-19T04:41:43;4.65;;;3.45;;
56413;SDS011;42318;48.452;19.526;2023-09-19T04:44:46;4.57;;;3.53;;
56413;SDS011;42318;48.452;19.526;2023-09-19T04:47:49;5.78;;;3.40;;
56413;SDS011;42318;48.452;19.526;2023-09-19T04:50:50;3.47;;;3.10;;
56413;SDS011;42318;48.452;19.526;2023-09-19T04:53:51;4.10;;;3.55;;
56413;SDS011;42318;48.452;19.526;2023-09-19T04:56:52;4.85;;;3.60;;
56413;SDS011;42318;48.452;19.526;2023-09-19T04:59:52;4.32;;;3.53;;
56413;SDS011;42318;48.452;19.526;2023-09-19T05:02:55;4.65;;;3.63;;
56413;SDS011;42318;48.452;19.526;2023-09-19T05:05:59;4.38;;;3.35;;
56413;SDS011;42318;48.452;19.526;2023-09-19T05:08:59;3.90;;;3.47;;
56413;SDS011;42318;48.452;19.526;2023-09-19T05:12:00;4.05;;;3.60;;
56413;SDS011;42318;48.452;19.526;2023-09-19T05:15:02;4.40;;;4.00;;
56413;SDS011;42318;48.452;19.526;2023-09-19T05:18:03;4.03;;;3.33;;
56413;SDS011;42318;48.452;19.526;2023-09-19T05:21:04;5.00;;;3.55;;
56413;SDS011;42318;48.452;19.526;2023-09-19T05:24:05;4.38;;;3.45;;
56413;SDS011;42318;48.452;19.526;2023-09-19T05:27:09;4.43;;;3.28;;
56413;SDS011;42318;48.452;19.526;2023-09-19T05:30:10;4.30;;;3.42;;
56413;SDS011;42318;48.452;19.526;2023-09-19T05:33:11;4.82;;;3.60;;
56413;SDS011;42318;48.452;19.526;2023-09-19T05:36:12;4.00;;;3.47;;
56413;SDS011;42318;48.452;19.526;2023-09-19T05:39:12;3.80;;;3.40;;
56413;SDS011;42318;48.452;19.526;2023-09-19T05:42:13;3.72;;;3.28;;
56413;SDS011;42318;48.452;19.526;2023-09-19T05:45:14;4.25;;;3.25;;
56413;SDS011;42318;48.452;19.526;2023-09-19T05:51:21;3.65;;;2.88;;
56413;SDS011;42318;48.452;19.526;2023-09-19T05:54:22;3.70;;;3.30;;
56413;SDS011;42318;48.452;19.526;2023-09-19T05:57:23;4.75;;;3.90;;
56413;SDS011;42318;48.452;19.526;2023-09-19T06:00:25;4.47;;;3.58;;
56413;SDS011;42318;48.452;19.526;2023-09-19T06:03:27;5.68;;;4.18;;
56413;SDS011;42318;48.452;19.526;2023-09-19T06:06:29;3.88;;;3.47;;
56413;SDS011;42318;48.452;19.526;2023-09-19T06:09:30;6.13;;;3.88;;
56413;SDS011;42318;48.452;19.526;2023-09-19T06:12:32;5.47;;;3.50;;
56413;SDS011;42318;48.452;19.526;2023-09-19T06:15:37;3.83;;;3.30;;
56413;SDS011;42318;48.452;19.526;2023-09-19T06:18:38;4.28;;;3.03;;
56413;SDS011;42318;48.452;19.526;2023-09-19T06:21:38;3.50;;;2.88;;
56413;SDS011;42318;48.452;19.526;2023-09-19T06:24:39;4.20;;;3.50;;
56413;SDS011;42318;48.452;19.526;2023-09-19T06:27:40;4.07;;;3.38;;
56413;SDS011;42318;48.452;19.526;2023-09-19T06:30:42;4.25;;;2.90;;
56413;SDS011;42318;48.452;19.526;2023-09-19T06:33:44;3.90;;;3.38;;
56413;SDS011;42318;48.452;19.526;2023-09-19T06:36:44;5.00;;;3.60;;
56413;SDS011;42318;48.452;19.526;2023-09-19T06:39:46;3.50;;;3.17;;
56413;SDS011;42318;48.452;19.526;2023-09-19T06:42:51;4.30;;;3.30;;
56413;SDS011;42318;48.452;19.526;2023-09-19T06:45:53;3.83;;;2.90;;
56413;SDS011;42318;48.452;19.526;2023-09-19T06:48:54;3.97;;;3.13;;
56413;SDS011;42318;48.452;19.526;2023-09-19T06:51:55;4.45;;;3.33;;
56413;SDS011;42318;48.452;19.526;2023-09-19T06:54:57;3.55;;;3.05;;
56413;SDS011;42318;48.452;19.526;2023-09-19T06:57:58;4.75;;;3.15;;
56413;SDS011;42318;48.452;19.526;2023-09-19T07:00:59;3.47;;;2.80;;
56413;SDS011;42318;48.452;19.526;2023-09-19T07:03:59;4.07;;;3.50;;
56413;SDS011;42318;48.452;19.526;2023-09-19T07:07:00;6.07;;;3.45;;
56413;SDS011;42318;48.452;19.526;2023-09-19T07:10:01;4.57;;;3.67;;
56413;SDS011;42318;48.452;19.526;2023-09-19T07:13:06;4.72;;;4.13;;
56413;SDS011;42318;48.452;19.526;2023-09-19T07:16:10;4.82;;;4.15;;
56413;SDS011;42318;48.452;19.526;2023-09-19T07:19:27;5.63;;;3.67;;
56413;SDS011;42318;48.452;19.526;2023-09-19T07:25:32;4.47;;;3.67;;
56413;SDS011;42318;48.452;19.526;2023-09-19T07:28:35;4.40;;;3.45;;
56413;SDS011;42318;48.452;19.526;2023-09-19T07:31:36;4.70;;;3.63;;
56413;SDS011;42318;48.452;19.526;2023-09-19T07:34:37;6.53;;;3.70;;
56413;SDS011;42318;48.452;19.526;2023-09-19T07:37:40;6.95;;;3.75;;
56413;SDS011;42318;48.452;19.526;2023-09-19T07:40:41;5.20;;;3.67;;
56413;SDS011;42318;48.452;19.526;2023-09-19T07:43:41;5.05;;;3.92;;
56413;SDS011;42318;48.452;19.526;2023-09-19T07:46:43;4.45;;;3.58;;
56413;SDS011;42318;48.452;19.526;2023-09-19T07:49:47;7.00;;;4.25;;
56413;SDS011;42318;48.452;19.526;2023-09-19T07:52:48;5.47;;;3.77;;
56413;SDS011;42318;48.452;19.526;2023-09-19T07:56:01;4.78;;;3.67;;
56413;SDS011;42318;48.452;19.526;2023-09-19T07:59:04;5.97;;;3.85;;
56413;SDS011;42318;48.452;19.526;2023-09-19T08:02:04;6.28;;;4.38;;
56413;SDS011;42318;48.452;19.526;2023-09-19T08:05:07;4.75;;;3.95;;
56413;SDS011;42318;48.452;19.526;2023-09-19T08:08:10;5.72;;;4.60;;
56413;SDS011;42318;48.452;19.526;2023-09-19T08:11:12;5.40;;;4.18;;
56413;SDS011;42318;48.452;19.526;2023-09-19T08:14:14;5.30;;;4.80;;
56413;SDS011;42318;48.452;19.526;2023-09-19T08:17:15;7.28;;;4.38;;
56413;SDS011;42318;48.452;19.526;2023-09-19T08:20:16;7.90;;;4.15;;
56413;SDS011;42318;48.452;19.526;2023-09-19T08:23:19;5.63;;;4.30;;
56413;SDS011;42318;48.452;19.526;2023-09-19T08:26:21;5.47;;;4.25;;
56413;SDS011;42318;48.452;19.526;2023-09-19T08:29:22;8.95;;;5.72;;
56413;SDS011;42318;48.452;19.526;2023-09-19T08:32:28;8.15;;;5.63;;
56413;SDS011;42318;48.452;19.526;2023-09-19T08:35:29;7.18;;;5.03;;
56413;SDS011;42318;48.452;19.526;2023-09-19T08:38:33;8.45;;;5.13;;
56413;SDS011;42318;48.452;19.526;2023-09-19T08:41:35;8.90;;;6.82;;
56413;SDS011;42318;48.452;19.526;2023-09-19T08:44:36;6.07;;;4.75;;
56413;SDS011;42318;48.452;19.526;2023-09-19T08:50:49;10.30;;;4.70;;
56413;SDS011;42318;48.452;19.526;2023-09-19T08:57:07;8.20;;;6.07;;
56413;SDS011;42318;48.452;19.526;2023-09-19T09:00:11;7.30;;;5.28;;
56413;SDS011;42318;48.452;19.526;2023-09-19T09:03:15;8.10;;;5.80;;
56413;SDS011;42318;48.452;19.526;2023-09-19T09:06:20;7.28;;;5.30;;
56413;SDS011;42318;48.452;19.526;2023-09-19T09:09:21;6.55;;;5.43;;
56413;SDS011;42318;48.452;19.526;2023-09-19T09:12:22;5.97;;;5.38;;
56413;SDS011;42318;48.452;19.526;2023-09-19T09:15:24;7.43;;;6.05;;
56413;SDS011;42318;48.452;19.526;2023-09-19T09:18:25;8.57;;;6.03;;
56413;SDS011;42318;48.452;19.526;2023-09-19T09:21:25;6.38;;;5.10;;
56413;SDS011;42318;48.452;19.526;2023-09-19T09:24:27;6.57;;;5.38;;
56413;SDS011;42318;48.452;19.526;2023-09-19T09:27:34;5.82;;;4.93;;
56413;SDS011;42318;48.452;19.526;2023-09-19T09:30:35;5.75;;;4.97;;
56413;SDS011;42318;48.452;19.526;2023-09-19T09:33:37;8.00;;;5.65;;
56413;SDS011;42318;48.452;19.526;2023-09-19T09:36:38;6.43;;;4.72;;
56413;SDS011;42318;48.452;19.526;2023-09-19T09:39:48;4.97;;;4.38;;
56413;SDS011;42318;48.452;19.526;2023-09-19T09:42:51;5.75;;;5.15;;
56413;SDS011;42318;48.452;19.526;2023-09-19T09:46:08;5.43;;;4.47;;
56413;SDS011;42318;48.452;19.526;2023-09-19T09:49:31;5.63;;;4.28;;
56413;SDS011;42318;48.452;19.526;2023-09-19T09:52:33;6.28;;;4.13;;
56413;SDS011;42318;48.452;19.526;2023-09-19T09:56:01;6.93;;;4.70;;
56413;SDS011;42318;48.452;19.526;2023-09-19T09:59:02;5.57;;;4.60;;
56413;SDS011;42318;48.452;19.526;2023-09-19T10:02:03;5.45;;;4.30;;
56413;SDS011;42318;48.452;19.526;2023-09-19T10:05:11;5.55;;;3.78;;
56413;SDS011;42318;48.452;19.526;2023-09-19T10:08:22;6.05;;;4.05;;
56413;SDS011;42318;48.452;19.526;2023-09-19T10:11:22;4.43;;;3.47;;
56413;SDS011;42318;48.452;19.526;2023-09-19T10:14:30;5.88;;;4.28;;
56413;SDS011;42318;48.452;19.526;2023-09-19T10:17:38;4.85;;;3.80;;
56413;SDS011;42318;48.452;19.526;2023-09-19T10:20:47;4.20;;;3.22;;
56413;SDS011;42318;48.452;19.526;2023-09-19T10:23:50;4.15;;;3.72;;
56413;SDS011;42318;48.452;19.526;2023-09-19T10:26:57;4.30;;;3.35;;
56413;SDS011;42318;48.452;19.526;2023-09-19T10:29:59;4.50;;;3.42;;
56413;SDS011;42318;48.452;19.526;2023-09-19T10:33:01;4.97;;;2.97;;
56413;SDS011;42318;48.452;19.526;2023-09-19T10:36:03;3.67;;;2.78;;
56413;SDS011;42318;48.452;19.526;2023-09-19T10:39:06;2.97;;;2.67;;
56413;SDS011;42318;48.452;19.526;2023-09-19T10:42:08;3.22;;;2.65;;
56413;SDS011;42318;48.452;19.526;2023-09-19T10:45:17;3.42;;;3.10;;
56413;SDS011;42318;48.452;19.526;2023-09-19T10:48:20;6.25;;;2.90;;
56413;SDS011;42318;48.452;19.526;2023-09-19T10:51:26;4.38;;;2.78;;
56413;SDS011;42318;48.452;19.526;2023-09-19T10:54:32;7.00;;;3.40;;
56413;SDS011;42318;48.452;19.526;2023-09-19T10:57:37;6.63;;;3.53;;
56413;SDS011;42318;48.452;19.526;2023-09-19T11:00:53;6.25;;;3.22;;
56413;SDS011;42318;48.452;19.526;2023-09-19T11:07:26;3.50;;;2.70;;
56413;SDS011;42318;48.452;19.526;2023-09-19T11:14:13;7.78;;;3.00;;
56413;SDS011;42318;48.452;19.526;2023-09-19T11:20:21;5.35;;;2.85;;
56413;SDS011;42318;48.452;19.526;2023-09-19T11:23:23;4.60;;;2.70;;
56413;SDS011;42318;48.452;19.526;2023-09-19T11:26:41;4.80;;;2.47;;
56413;SDS011;42318;48.452;19.526;2023-09-19T11:29:49;2.72;;;2.30;;
56413;SDS011;42318;48.452;19.526;2023-09-19T11:33:28;7.00;;;2.65;;
56413;SDS011;42318;48.452;19.526;2023-09-19T11:36:41;4.68;;;1.88;;
56413;SDS011;42318;48.452;19.526;2023-09-19T11:43:29;2.88;;;1.75;;
56413;SDS011;42318;48.452;19.526;2023-09-19T11:46:52;3.42;;;1.95;;
56413;SDS011;42318;48.452;19.526;2023-09-19T11:49:53;2.22;;;1.77;;
56413;SDS011;42318;48.452;19.526;2023-09-19T11:52:54;5.50;;;2.28;;
56413;SDS011;42318;48.452;19.526;2023-09-19T11:55:55;2.55;;;1.80;;
56413;SDS011;42318;48.452;19.526;2023-09-19T11:58:57;2.70;;;1.90;;
56413;SDS011;42318;48.452;19.526;2023-09-19T12:02:01;2.33;;;1.27;;
56413;SDS011;42318;48.452;19.526;2023-09-19T12:05:05;4.38;;;1.88;;
56413;SDS011;42318;48.452;19.526;2023-09-19T12:08:09;2.90;;;1.50;;
56413;SDS011;42318;48.452;19.526;2023-09-19T12:11:13;3.10;;;1.33;;
56413;SDS011;42318;48.452;19.526;2023-09-19T12:14:22;3.47;;;1.48;;
56413;SDS011;42318;48.452;19.526;2023-09-19T12:17:37;5.00;;;1.67;;
56413;SDS011;42318;48.452;19.526;2023-09-19T12:20:45;2.60;;;0.90;;
56413;SDS011;42318;48.452;19.526;2023-09-19T12:24:24;1.67;;;0.98;;
56413;SDS011;42318;48.452;19.526;2023-09-19T12:27:19;2.78;;;1.00;;
56413;SDS011;42318;48.452;19.526;2023-09-19T12:30:20;2.38;;;1.25;;
56413;SDS011;42318;48.452;19.526;2023-09-19T12:33:28;2.08;;;1.00;;
56413;SDS011;42318;48.452;19.526;2023-09-19T12:36:28;2.80;;;1.10;;
56413;SDS011;42318;48.452;19.526;2023-09-19T12:39:30;3.38;;;1.05;;
56413;SDS011;42318;48.452;19.526;2023-09-19T12:42:31;1.77;;;1.00;;
56413;SDS011;42318;48.452;19.526;2023-09-19T12:45:35;2.17;;;1.15;;
56413;SDS011;42318;48.452;19.526;2023-09-19T12:48:37;1.48;;;0.88;;
56413;SDS011;42318;48.452;19.526;2023-09-19T12:51:45;1.85;;;0.90;;
56413;SDS011;42318;48.452;19.526;2023-09-19T12:54:47;1.60;;;0.90;;
56413;SDS011;42318;48.452;19.526;2023-09-19T13:01:13;4.03;;;1.02;;
56413;SDS011;42318;48.452;19.526;2023-09-19T13:04:18;3.00;;;1.55;;
56413;SDS011;42318;48.452;19.526;2023-09-19T13:07:39;5.50;;;1.35;;
56413;SDS011;42318;48.452;19.526;2023-09-19T13:14:23;7.75;;;1.60;;
56413;SDS011;42318;48.452;19.526;2023-09-19T13:17:42;3.17;;;1.15;;
56413;SDS011;42318;48.452;19.526;2023-09-19T13:21:05;2.72;;;1.10;;
56413;SDS011;42318;48.452;19.526;2023-09-19T13:24:25;26.67;;;2.38;;
56413;SDS011;42318;48.452;19.526;2023-09-19T13:27:28;2.95;;;1.50;;
56413;SDS011;42318;48.452;19.526;2023-09-19T13:30:29;5.78;;;1.40;;
56413;SDS011;42318;48.452;19.526;2023-09-19T13:33:31;6.68;;;1.35;;
56413;SDS011;42318;48.452;19.526;2023-09-19T13:36:33;7.43;;;1.60;;
56413;SDS011;42318;48.452;19.526;2023-09-19T13:39:33;4.68;;;1.60;;
56413;SDS011;42318;48.452;19.526;2023-09-19T13:42:34;3.50;;;1.35;;
56413;SDS011;42318;48.452;19.526;2023-09-19T13:45:36;5.25;;;1.60;;
56413;SDS011;42318;48.452;19.526;2023-09-19T13:48:37;4.35;;;1.33;;
56413;SDS011;42318;48.452;19.526;2023-09-19T13:51:38;4.35;;;1.70;;
56413;SDS011;42318;48.452;19.526;2023-09-19T13:54:40;2.53;;;1.45;;
56413;SDS011;42318;48.452;19.526;2023-09-19T13:57:41;4.57;;;1.40;;
56413;SDS011;42318;48.452;19.526;2023-09-19T14:00:43;4.70;;;1.48;;
56413;SDS011;42318;48.452;19.526;2023-09-19T14:03:44;6.78;;;2.42;;
56413;SDS011;42318;48.452;19.526;2023-09-19T14:06:46;3.65;;;1.63;;
56413;SDS011;42318;48.452;19.526;2023-09-19T14:09:47;4.47;;;1.50;;
56413;SDS011;42318;48.452;19.526;2023-09-19T14:12:48;6.10;;;1.75;;
56413;SDS011;42318;48.452;19.526;2023-09-19T14:15:48;4.32;;;1.50;;
56413;SDS011;42318;48.452;19.526;2023-09-19T14:18:49;4.18;;;1.42;;
56413;SDS011;42318;48.452;19.526;2023-09-19T14:21:50;6.55;;;1.50;;
56413;SDS011;42318;48.452;19.526;2023-09-19T14:24:51;3.67;;;1.60;;
56413;SDS011;42318;48.452;19.526;2023-09-19T14:27:53;3.58;;;1.20;;
56413;SDS011;42318;48.452;19.526;2023-09-19T14:30:53;5.57;;;1.83;;
56413;SDS011;42318;48.452;19.526;2023-09-19T14:33:54;2.88;;;1.50;;
56413;SDS011;42318;48.452;19.526;2023-09-19T14:36:57;3.63;;;1.38;;
56413;SDS011;42318;48.452;19.526;2023-09-19T14:39:57;3.30;;;1.30;;
56413;SDS011;42318;48.452;19.526;2023-09-19T14:42:58;6.65;;;2.30;;
56413;SDS011;42318;48.452;19.526;2023-09-19T14:46:04;5.38;;;1.30;;
56413;SDS011;42318;48.452;19.526;2023-09-19T14:49:10;3.85;;;1.55;;
56413;SDS011;42318;48.452;19.526;2023-09-19T14:52:11;3.53;;;1.63;;
56413;SDS011;42318;48.452;19.526;2023-09-19T14:55:15;5.43;;;1.40;;
56413;SDS011;42318;48.452;19.526;2023-09-19T14:58:16;4.50;;;1.40;;
56413;SDS011;42318;48.452;19.526;2023-09-19T15:01:17;2.42;;;1.10;;
56413;SDS011;42318;48.452;19.526;2023-09-19T15:04:18;4.68;;;1.27;;
56413;SDS011;42318;48.452;19.526;2023-09-19T15:07:18;4.00;;;1.50;;
56413;SDS011;42318;48.452;19.526;2023-09-19T15:10:19;5.22;;;1.52;;
56413;SDS011;42318;48.452;19.526;2023-09-19T15:13:20;5.65;;;1.60;;
56413;SDS011;42318;48.452;19.526;2023-09-19T15:16:21;5.68;;;1.90;;
56413;SDS011;42318;48.452;19.526;2023-09-19T15:19:22;5.55;;;1.25;;
56413;SDS011;42318;48.452;19.526;2023-09-19T15:22:23;4.07;;;1.65;;
56413;SDS011;42318;48.452;19.526;2023-09-19T15:25:23;3.85;;;1.58;;
56413;SDS011;42318;48.452;19.526;2023-09-19T15:28:25;4.30;;;1.50;;
56413;SDS011;42318;48.452;19.526;2023-09-19T15:31:26;5.20;;;1.77;;
56413;SDS011;42318;48.452;19.526;2023-09-19T15:34:27;3.33;;;1.45;;
56413;SDS011;42318;48.452;19.526;2023-09-19T15:37:29;2.85;;;1.38;;
56413;SDS011;42318;48.452;19.526;2023-09-19T15:40:29;2.20;;;1.40;;
56413;SDS011;42318;48.452;19.526;2023-09-19T15:43:30;1.92;;;1.23;;
56413;SDS011;42318;48.452;19.526;2023-09-19T15:46:31;4.00;;;1.52;;
56413;SDS011;42318;48.452;19.526;2023-09-19T15:49:35;3.58;;;1.30;;
56413;SDS011;42318;48.452;19.526;2023-09-19T15:52:35;2.92;;;1.48;;
56413;SDS011;42318;48.452;19.526;2023-09-19T15:55:39;4.05;;;1.60;;
56413;SDS011;42318;48.452;19.526;2023-09-19T15:58:46;5.35;;;1.58;;
56413;SDS011;42318;48.452;19.526;2023-09-19T16:01:48;2.83;;;1.50;;
56413;SDS011;42318;48.452;19.526;2023-09-19T16:04:50;3.30;;;1.33;;
56413;SDS011;42318;48.452;19.526;2023-09-19T16:07:51;2.35;;;1.27;;
56413;SDS011;42318;48.452;19.526;2023-09-19T16:10:54;4.45;;;1.50;;
56413;SDS011;42318;48.452;19.526;2023-09-19T16:13:55;5.07;;;1.20;;
56413;SDS011;42318;48.452;19.526;2023-09-19T16:16:56;3.60;;;1.60;;
56413;SDS011;42318;48.452;19.526;2023-09-19T16:19:58;3.47;;;1.55;;
56413;SDS011;42318;48.452;19.526;2023-09-19T16:22:58;2.67;;;1.23;;
56413;SDS011;42318;48.452;19.526;2023-09-19T16:26:07;4.10;;;1.80;;
56413;SDS011;42318;48.452;19.526;2023-09-19T16:29:13;4.22;;;1.60;;
56413;SDS011;42318;48.452;19.526;2023-09-19T16:32:14;3.53;;;1.48;;
56413;SDS011;42318;48.452;19.526;2023-09-19T16:35:16;3.33;;;1.58;;
56413;SDS011;42318;48.452;19.526;2023-09-19T16:38:17;4.10;;;1.42;;
56413;SDS011;42318;48.452;19.526;2023-09-19T16:41:18;4.00;;;1.58;;
56413;SDS011;42318;48.452;19.526;2023-09-19T16:44:19;3.90;;;1.60;;
56413;SDS011;42318;48.452;19.526;2023-09-19T16:47:20;5.32;;;1.40;;
56413;SDS011;42318;48.452;19.526;2023-09-19T16:50:21;3.50;;;1.58;;
56413;SDS011;42318;48.452;19.526;2023-09-19T16:53:22;3.13;;;1.75;;
56413;SDS011;42318;48.452;19.526;2023-09-19T16:56:23;3.58;;;1.55;;
56413;SDS011;42318;48.452;19.526;2023-09-19T16:59:23;5.63;;;1.60;;
56413;SDS011;42318;48.452;19.526;2023-09-19T17:02:24;3.95;;;1.73;;
56413;SDS011;42318;48.452;19.526;2023-09-19T17:05:24;5.22;;;1.40;;
56413;SDS011;42318;48.452;19.526;2023-09-19T17:08:27;4.10;;;1.45;;
56413;SDS011;42318;48.452;19.526;2023-09-19T17:11:28;4.00;;;1.50;;
56413;SDS011;42318;48.452;19.526;2023-09-19T17:14:29;4.75;;;1.40;;
56413;SDS011;42318;48.452;19.526;2023-09-19T17:17:33;6.80;;;2.03;;
56413;SDS011;42318;48.452;19.526;2023-09-19T17:20:34;3.58;;;1.48;;
56413;SDS011;42318;48.452;19.526;2023-09-19T17:23:41;4.68;;;1.80;;
56413;SDS011;42318;48.452;19.526;2023-09-19T17:26:42;5.60;;;2.10;;
56413;SDS011;42318;48.452;19.526;2023-09-19T17:29:43;6.78;;;1.88;;
56413;SDS011;42318;48.452;19.526;2023-09-19T17:32:44;3.78;;;1.65;;
56413;SDS011;42318;48.452;19.526;2023-09-19T17:35:45;7.15;;;1.83;;
56413;SDS011;42318;48.452;19.526;2023-09-19T17:38:47;5.00;;;1.77;;
56413;SDS011;42318;48.452;19.526;2023-09-19T17:41:49;4.45;;;2.35;;
56413;SDS011;42318;48.452;19.526;2023-09-19T17:44:52;5.55;;;2.00;;
56413;SDS011;42318;48.452;19.526;2023-09-19T17:47:52;4.30;;;1.48;;
56413;SDS011;42318;48.452;19.526;2023-09-19T17:51:02;5.07;;;1.67;;
56413;SDS011;42318;48.452;19.526;2023-09-19T17:54:03;5.18;;;1.98;;
56413;SDS011;42318;48.452;19.526;2023-09-19T17:57:05;4.32;;;1.67;;
56413;SDS011;42318;48.452;19.526;2023-09-19T18:00:05;3.85;;;1.50;;
56413;SDS011;42318;48.452;19.526;2023-09-19T18:03:09;5.75;;;1.63;;
56413;SDS011;42318;48.452;19.526;2023-09-19T18:06:10;6.28;;;1.98;;
56413;SDS011;42318;48.452;19.526;2023-09-19T18:09:12;3.78;;;1.60;;
56413;SDS011;42318;48.452;19.526;2023-09-19T18:12:14;4.22;;;1.63;;
56413;SDS011;42318;48.452;19.526;2023-09-19T18:15:15;4.43;;;1.63;;
56413;SDS011;42318;48.452;19.526;2023-09-19T18:18:16;9.18;;;1.75;;
56413;SDS011;42318;48.452;19.526;2023-09-19T18:21:16;3.63;;;1.50;;
56413;SDS011;42318;48.452;19.526;2023-09-19T18:24:20;3.13;;;1.33;;
56413;SDS011;42318;48.452;19.526;2023-09-19T18:27:20;2.92;;;1.60;;
56413;SDS011;42318;48.452;19.526;2023-09-19T18:30:22;3.28;;;1.30;;
56413;SDS011;42318;48.452;19.526;2023-09-19T18:33:23;6.20;;;1.65;;
56413;SDS011;42318;48.452;19.526;2023-09-19T18:36:27;4.40;;;1.60;;
56413;SDS011;42318;48.452;19.526;2023-09-19T18:39:28;4.95;;;1.73;;
56413;SDS011;42318;48.452;19.526;2023-09-19T18:42:30;4.25;;;1.60;;
56413;SDS011;42318;48.452;19.526;2023-09-19T18:45:31;3.67;;;1.65;;
56413;SDS011;42318;48.452;19.526;2023-09-19T18:48:31;5.95;;;1.90;;
56413;SDS011;42318;48.452;19.526;2023-09-19T18:51:32;5.25;;;1.58;;
56413;SDS011;42318;48.452;19.526;2023-09-19T18:54:33;5.20;;;1.80;;
56413;SDS011;42318;48.452;19.526;2023-09-19T18:57:43;4.20;;;1.60;;
56413;SDS011;42318;48.452;19.526;2023-09-19T19:00:44;4.47;;;1.30;;
56413;SDS011;42318;48.452;19.526;2023-09-19T19:03:45;2.53;;;1.70;;